sensor_id;sensor_type;location;lat;lon;timestamp;pressure;altitude;pressure_sealevel;temperature;humidity
4085;BME280;2057;50.858;6.572;2022-12-07T00:01:30;100524.03;;;4.21;100.00
4085;BME280;2057;50.858;6.572;2022-12-07T00:03:57;100525.44;;;4.18;100.00
4085;BME280;2057;50.858;6.572;2022-12-07T00:06:43;100521.63;;;4.23;100.00
4085;BME280;2057;50.858;6.572;2022-12-07T00:09:14;100512.97;;;4.19;100.00
4085;BME280;2057;50.858;6.572;2022-12-07T00:11:40;100509.59;;;4.19;100.00
4085;BME280;2057;50.858;6.572;2022-12-07T00:14:08;100508.94;;;4.21;100.00
4085;BME280;2057;50.858;6.572;2022-12-07T00:16:35;100520.75;;;4.22;100.00
4085;BME280;2057;50.858;6.572;2022-12-07T00:19:02;100513.66;;;4.29;100.00
4085;BME280;2057;50.858;6.572;2022-12-07T00:21:29;100507.78;;;4.28;100.00
4085;BME280;2057;50.858;6.572;2022-12-07T00:23:56;100506.78;;;4.26;100.00
4085;BME280;2057;50.858;6.572;2022-12-07T00:26:24;100504.69;;;4.20;100.00
4085;BME280;2057;50.858;6.572;2022-12-07T00:28:58;100507.31;;;4.22;100.00
4085;BME280;2057;50.858;6.572;2022-12-07T00:31:29;100501.97;;;4.29;100.00
4085;BME280;2057;50.858;6.572;2022-12-07T00:33:54;100500.00;;;4.25;100.00
4085;BME280;2057;50.858;6.572;2022-12-07T00:36:23;100495.50;;;4.21;100.00
4085;BME280;2057;50.858;6.572;2022-12-07T00:38:48;100498.91;;;4.21;100.00
4085;BME280;2057;50.858;6.572;2022-12-07T00:41:16;100498.25;;;4.24;100.00
4085;BME280;2057;50.858;6.572;2022-12-07T00:43:43;100492.47;;;4.25;100.00
4085;BME280;2057;50.858;6.572;2022-12-07T00:46:09;100488.44;;;4.27;100.00
4085;BME280;2057;50.858;6.572;2022-12-07T00:48:35;100487.44;;;4.25;100.00
4085;BME280;2057;50.858;6.572;2022-12-07T00:51:01;100494.56;;;4.31;100.00
4085;BME280;2057;50.858;6.572;2022-12-07T00:53:27;100481.47;;;4.47;100.00
4085;BME280;2057;50.858;6.572;2022-12-07T00:55:53;100486.06;;;4.40;100.00
4085;BME280;2057;50.858;6.572;2022-12-07T00:58:19;100488.88;;;4.33;100.00
4085;BME280;2057;50.858;6.572;2022-12-07T01:00:44;100487.13;;;4.32;100.00
4085;BME280;2057;50.858;6.572;2022-12-07T01:03:12;100488.28;;;4.26;100.00
4085;BME280;2057;50.858;6.572;2022-12-07T01:05:38;100490.19;;;4.28;100.00
4085;BME280;2057;50.858;6.572;2022-12-07T01:08:04;100487.56;;;4.38;100.00
4085;BME280;2057;50.858;6.572;2022-12-07T01:10:29;100490.53;;;4.33;100.00
4085;BME280;2057;50.858;6.572;2022-12-07T01:12:56;100488.34;;;4.37;100.00
4085;BME280;2057;50.858;6.572;2022-12-07T01:15:22;100484.19;;;4.38;100.00
4085;BME280;2057;50.858;6.572;2022-12-07T01:17:47;100495.66;;;4.34;100.00
4085;BME280;2057;50.858;6.572;2022-12-07T01:20:13;100493.03;;;4.33;100.00
4085;BME280;2057;50.858;6.572;2022-12-07T01:22:40;100498.81;;;4.32;100.00
4085;BME280;2057;50.858;6.572;2022-12-07T01:25:07;100500.44;;;4.31;100.00
4085;BME280;2057;50.858;6.572;2022-12-07T01:27:33;100497.53;;;4.37;100.00
4085;BME280;2057;50.858;6.572;2022-12-07T01:30:00;100495.41;;;4.31;100.00
4085;BME280;2057;50.858;6.572;2022-12-07T01:32:25;100498.28;;;4.36;100.00
4085;BME280;2057;50.858;6.572;2022-12-07T01:34:51;100490.41;;;4.43;100.00
4085;BME280;2057;50.858;6.572;2022-12-07T01:37:16;100499.44;;;4.29;100.00
4085;BME280;2057;50.858;6.572;2022-12-07T01:39:41;100496.94;;;4.29;100.00
4085;BME280;2057;50.858;6.572;2022-12-07T01:42:10;100497.59;;;4.27;100.00
4085;BME280;2057;50.858;6.572;2022-12-07T01:47:40;100490.28;;;4.30;100.00
4085;BME280;2057;50.858;6.572;2022-12-07T01:50:06;100493.91;;;4.33;100.00
4085;BME280;2057;50.858;6.572;2022-12-07T01:52:33;100486.72;;;4.38;100.00
4085;BME280;2057;50.858;6.572;2022-12-07T01:55:04;100482.09;;;4.32;100.00
4085;BME280;2057;50.858;6.572;2022-12-07T01:57:33;100488.63;;;4.30;100.00
4085;BME280;2057;50.858;6.572;2022-12-07T02:00:00;100496.75;;;4.38;100.00
4085;BME280;2057;50.858;6.572;2022-12-07T02:02:28;100494.78;;;4.34;100.00
4085;BME280;2057;50.858;6.572;2022-12-07T02:04:57;100482.09;;;4.32;100.00
4085;BME280;2057;50.858;6.572;2022-12-07T02:07:23;100479.16;;;4.26;100.00
4085;BME280;2057;50.858;6.572;2022-12-07T02:09:50;100482.09;;;4.32;100.00
4085;BME280;2057;50.858;6.572;2022-12-07T02:12:15;100469.19;;;4.28;100.00
4085;BME280;2057;50.858;6.572;2022-12-07T02:14:41;100470.28;;;4.31;100.00
4085;BME280;2057;50.858;6.572;2022-12-07T02:22:52;100469.00;;;4.24;100.00
4085;BME280;2057;50.858;6.572;2022-12-07T02:25:28;100472.25;;;4.23;100.00
4085;BME280;2057;50.858;6.572;2022-12-07T02:28:05;100475.63;;;4.24;100.00
4085;BME280;2057;50.858;6.572;2022-12-07T02:30:36;100466.34;;;4.23;100.00
4085;BME280;2057;50.858;6.572;2022-12-07T02:33:16;100472.88;;;4.21;100.00
4085;BME280;2057;50.858;6.572;2022-12-07T02:35:46;100465.34;;;4.21;100.00
4085;BME280;2057;50.858;6.572;2022-12-07T02:38:19;100464.59;;;4.22;100.00
4085;BME280;2057;50.858;6.572;2022-12-07T02:40:48;100475.13;;;4.28;100.00
4085;BME280;2057;50.858;6.572;2022-12-07T02:43:19;100466.56;;;4.26;100.00
4085;BME280;2057;50.858;6.572;2022-12-07T02:45:47;100467.84;;;4.21;100.00
4085;BME280;2057;50.858;6.572;2022-12-07T02:48:16;100469.59;;;4.22;100.00
4085;BME280;2057;50.858;6.572;2022-12-07T02:50:52;100468.09;;;4.24;100.00
4085;BME280;2057;50.858;6.572;2022-12-07T02:53:41;100458.38;;;4.29;100.00
4085;BME280;2057;50.858;6.572;2022-12-07T03:02:16;100463.41;;;4.29;100.00
4085;BME280;2057;50.858;6.572;2022-12-07T03:07:39;100464.44;;;4.43;100.00
4085;BME280;2057;50.858;6.572;2022-12-07T03:15:53;100463.75;;;4.33;100.00
4085;BME280;2057;50.858;6.572;2022-12-07T03:18:22;100462.56;;;4.28;100.00
4085;BME280;2057;50.858;6.572;2022-12-07T03:20:51;100468.00;;;4.34;100.00
4085;BME280;2057;50.858;6.572;2022-12-07T03:23:19;100473.00;;;4.22;100.00
4085;BME280;2057;50.858;6.572;2022-12-07T03:25:49;100471.16;;;4.20;100.00
4085;BME280;2057;50.858;6.572;2022-12-07T03:28:19;100466.47;;;4.24;100.00
4085;BME280;2057;50.858;6.572;2022-12-07T03:30:50;100471.16;;;4.20;100.00
4085;BME280;2057;50.858;6.572;2022-12-07T03:33:24;100460.56;;;4.24;100.00
4085;BME280;2057;50.858;6.572;2022-12-07T03:36:11;100467.34;;;4.25;100.00
4085;BME280;2057;50.858;6.572;2022-12-07T03:38:48;100474.91;;;4.37;100.00
4085;BME280;2057;50.858;6.572;2022-12-07T03:41:23;100469.94;;;4.27;100.00
4085;BME280;2057;50.858;6.572;2022-12-07T03:43:49;100469.53;;;4.32;100.00
4085;BME280;2057;50.858;6.572;2022-12-07T03:49:06;100460.91;;;4.29;100.00
4085;BME280;2057;50.858;6.572;2022-12-07T03:54:24;100454.56;;;4.34;100.00
4085;BME280;2057;50.858;6.572;2022-12-07T03:56:52;100457.63;;;4.30;100.00
4085;BME280;2057;50.858;6.572;2022-12-07T03:59:19;100454.09;;;4.16;100.00
4085;BME280;2057;50.858;6.572;2022-12-07T04:01:52;100453.22;;;4.15;100.00
4085;BME280;2057;50.858;6.572;2022-12-07T04:04:18;100450.25;;;4.21;100.00
4085;BME280;2057;50.858;6.572;2022-12-07T04:06:43;100452.34;;;4.15;100.00
4085;BME280;2057;50.858;6.572;2022-12-07T04:09:09;100456.50;;;4.14;100.00
4085;BME280;2057;50.858;6.572;2022-12-07T04:11:34;100461.09;;;4.20;100.00
4085;BME280;2057;50.858;6.572;2022-12-07T04:13:59;100451.47;;;4.14;100.00
4085;BME280;2057;50.858;6.572;2022-12-07T04:16:46;100458.94;;;4.24;100.00
4085;BME280;2057;50.858;6.572;2022-12-07T04:19:11;100469.59;;;4.10;100.00
4085;BME280;2057;50.858;6.572;2022-12-07T04:21:37;100452.34;;;4.15;100.00
4085;BME280;2057;50.858;6.572;2022-12-07T04:24:03;100454.06;;;4.04;100.00
4085;BME280;2057;50.858;6.572;2022-12-07T04:26:31;100455.88;;;3.95;100.00
4085;BME280;2057;50.858;6.572;2022-12-07T04:28:56;100446.94;;;3.98;100.00
4085;BME280;2057;50.858;6.572;2022-12-07T04:31:22;100458.84;;;4.01;100.00
4085;BME280;2057;50.858;6.572;2022-12-07T04:33:49;100455.03;;;3.94;100.00
4085;BME280;2057;50.858;6.572;2022-12-07T04:36:15;100454.47;;;3.98;100.00
4085;BME280;2057;50.858;6.572;2022-12-07T04:38:40;100456.56;;;4.04;100.00
4085;BME280;2057;50.858;6.572;2022-12-07T04:41:11;100458.44;;;4.06;100.00
4085;BME280;2057;50.858;6.572;2022-12-07T04:43:36;100453.84;;;4.13;100.00
4085;BME280;2057;50.858;6.572;2022-12-07T04:46:02;100463.34;;;4.05;100.00
4085;BME280;2057;50.858;6.572;2022-12-07T04:48:28;100454.22;;;3.95;100.00
4085;BME280;2057;50.858;6.572;2022-12-07T04:50:53;100454.22;;;3.95;100.00
4085;BME280;2057;50.858;6.572;2022-12-07T04:53:19;100452.84;;;3.99;100.00
4085;BME280;2057;50.858;6.572;2022-12-07T04:55:45;100452.72;;;3.97;100.00
4085;BME280;2057;50.858;6.572;2022-12-07T04:58:12;100442.22;;;3.91;100.00
4085;BME280;2057;50.858;6.572;2022-12-07T05:00:37;100446.25;;;3.89;100.00
4085;BME280;2057;50.858;6.572;2022-12-07T05:03:03;100448.25;;;3.93;100.00
4085;BME280;2057;50.858;6.572;2022-12-07T05:05:28;100449.56;;;4.00;100.00
4085;BME280;2057;50.858;6.572;2022-12-07T05:07:56;100445.75;;;4.05;100.00
4085;BME280;2057;50.858;6.572;2022-12-07T05:10:25;100453.63;;;3.98;100.00
4085;BME280;2057;50.858;6.572;2022-12-07T05:12:50;100445.16;;;3.85;100.00
4085;BME280;2057;50.858;6.572;2022-12-07T05:15:16;100450.44;;;4.00;100.00
4085;BME280;2057;50.858;6.572;2022-12-07T05:17:41;100456.47;;;4.02;100.00
4085;BME280;2057;50.858;6.572;2022-12-07T05:20:07;100457.53;;;3.94;100.00
4085;BME280;2057;50.858;6.572;2022-12-07T05:22:33;100460.03;;;3.94;100.00
4085;BME280;2057;50.858;6.572;2022-12-07T05:24:58;100459.03;;;3.92;100.00
4085;BME280;2057;50.858;6.572;2022-12-07T05:27:24;100454.31;;;4.07;100.00
4085;BME280;2057;50.858;6.572;2022-12-07T05:29:51;100462.25;;;4.01;100.00
4085;BME280;2057;50.858;6.572;2022-12-07T05:32:17;100460.84;;;4.05;100.00
4085;BME280;2057;50.858;6.572;2022-12-07T05:34:44;100454.50;;;4.10;100.00
4085;BME280;2057;50.858;6.572;2022-12-07T05:37:10;100456.47;;;4.02;100.00
4085;BME280;2057;50.858;6.572;2022-12-07T05:39:35;100455.25;;;4.09;100.00
4085;BME280;2057;50.858;6.572;2022-12-07T05:42:03;100464.47;;;4.20;100.00
4085;BME280;2057;50.858;6.572;2022-12-07T05:44:46;100456.47;;;4.02;100.00
4085;BME280;2057;50.858;6.572;2022-12-07T05:47:13;100460.69;;;4.03;100.00
4085;BME280;2057;50.858;6.572;2022-12-07T05:49:39;100466.50;;;4.02;100.00
4085;BME280;2057;50.858;6.572;2022-12-07T05:52:05;100464.97;;;4.04;100.00
4085;BME280;2057;50.858;6.572;2022-12-07T05:54:30;100461.59;;;4.04;100.00
4085;BME280;2057;50.858;6.572;2022-12-07T05:56:55;100465.50;;;4.00;100.00
4085;BME280;2057;50.858;6.572;2022-12-07T05:59:21;100464.97;;;4.04;100.00
4085;BME280;2057;50.858;6.572;2022-12-07T06:01:56;100463.81;;;4.11;100.00
4085;BME280;2057;50.858;6.572;2022-12-07T06:04:24;100460.69;;;4.03;100.00
4085;BME280;2057;50.858;6.572;2022-12-07T06:06:49;100470.00;;;4.04;100.00
4085;BME280;2057;50.858;6.572;2022-12-07T06:09:16;100469.47;;;4.08;100.00
4085;BME280;2057;50.858;6.572;2022-12-07T06:11:43;100460.63;;;4.14;100.00
4085;BME280;2057;50.858;6.572;2022-12-07T06:14:27;100459.09;;;4.04;100.00
4085;BME280;2057;50.858;6.572;2022-12-07T06:16:52;100459.19;;;4.05;100.00
4085;BME280;2057;50.858;6.572;2022-12-07T06:19:17;100460.19;;;4.07;100.00
4085;BME280;2057;50.858;6.572;2022-12-07T06:21:43;100460.38;;;3.99;100.00
4085;BME280;2057;50.858;6.572;2022-12-07T06:24:12;100464.28;;;3.95;100.00
4085;BME280;2057;50.858;6.572;2022-12-07T06:26:38;100461.56;;;3.92;100.00
4085;BME280;2057;50.858;6.572;2022-12-07T06:29:04;100456.09;;;3.86;100.00
4085;BME280;2057;50.858;6.572;2022-12-07T06:31:30;100461.00;;;3.96;100.00
4085;BME280;2057;50.858;6.572;2022-12-07T06:34:02;100460.03;;;3.94;100.00
4085;BME280;2057;50.858;6.572;2022-12-07T06:36:28;100459.94;;;4.04;100.00
4085;BME280;2057;50.858;6.572;2022-12-07T06:38:54;100459.66;;;4.12;100.00
4085;BME280;2057;50.858;6.572;2022-12-07T06:41:23;100459.19;;;4.05;100.00
4085;BME280;2057;50.858;6.572;2022-12-07T06:43:49;100467.34;;;3.91;100.00
4085;BME280;2057;50.858;6.572;2022-12-07T06:46:15;100461.00;;;3.96;100.00
4085;BME280;2057;50.858;6.572;2022-12-07T06:48:41;100460.38;;;3.99;100.00
4085;BME280;2057;50.858;6.572;2022-12-07T06:51:09;100464.63;;;4.00;100.00
4085;BME280;2057;50.858;6.572;2022-12-07T06:53:35;100468.69;;;3.98;100.00
4085;BME280;2057;50.858;6.572;2022-12-07T06:56:02;100473.34;;;3.93;100.00
4085;BME280;2057;50.858;6.572;2022-12-07T06:58:27;100469.84;;;3.91;100.00
4085;BME280;2057;50.858;6.572;2022-12-07T07:00:53;100474.13;;;3.92;100.00
4085;BME280;2057;50.858;6.572;2022-12-07T07:03:19;100465.81;;;3.93;100.00
4085;BME280;2057;50.858;6.572;2022-12-07T07:05:44;100466.44;;;3.90;100.00
4085;BME280;2057;50.858;6.572;2022-12-07T07:08:10;100465.34;;;3.87;100.00
4085;BME280;2057;50.858;6.572;2022-12-07T07:10:36;100468.97;;;3.90;100.00
4085;BME280;2057;50.858;6.572;2022-12-07T07:13:02;100466.78;;;3.95;100.00
4085;BME280;2057;50.858;6.572;2022-12-07T07:15:28;100470.44;;;3.99;100.00
4085;BME280;2057;50.858;6.572;2022-12-07T07:17:53;100473.06;;;4.00;100.00
4085;BME280;2057;50.858;6.572;2022-12-07T07:20:19;100470.59;;;3.90;100.00
4085;BME280;2057;50.858;6.572;2022-12-07T07:22:44;100480.25;;;3.96;100.00
4085;BME280;2057;50.858;6.572;2022-12-07T07:25:10;100479.53;;;3.86;100.00
4085;BME280;2057;50.858;6.572;2022-12-07T07:27:35;100484.31;;;4.05;100.00
4085;BME280;2057;50.858;6.572;2022-12-07T07:30:01;100479.59;;;3.98;100.00
4085;BME280;2057;50.858;6.572;2022-12-07T07:32:26;100475.22;;;3.96;100.00
4085;BME280;2057;50.858;6.572;2022-12-07T07:34:51;100477.84;;;3.97;100.00
4085;BME280;2057;50.858;6.572;2022-12-07T07:37:16;100474.25;;;4.05;100.00
4085;BME280;2057;50.858;6.572;2022-12-07T07:39:42;100472.81;;;3.97;100.00
4085;BME280;2057;50.858;6.572;2022-12-07T07:42:07;100479.47;;;3.97;100.00
4085;BME280;2057;50.858;6.572;2022-12-07T07:44:33;100485.03;;;3.92;100.00
4085;BME280;2057;50.858;6.572;2022-12-07T07:46:59;100477.03;;;3.86;100.00
4085;BME280;2057;50.858;6.572;2022-12-07T07:49:25;100476.94;;;3.85;100.00
4085;BME280;2057;50.858;6.572;2022-12-07T07:51:50;100483.16;;;3.90;100.00
4085;BME280;2057;50.858;6.572;2022-12-07T07:54:15;100484.19;;;4.04;100.00
4085;BME280;2057;50.858;6.572;2022-12-07T07:56:41;100492.25;;;4.00;100.00
4085;BME280;2057;50.858;6.572;2022-12-07T07:59:06;100486.88;;;3.95;100.00
4085;BME280;2057;50.858;6.572;2022-12-07T08:01:31;100488.88;;;3.99;100.00
4085;BME280;2057;50.858;6.572;2022-12-07T08:03:57;100489.84;;;3.89;100.00
4085;BME280;2057;50.858;6.572;2022-12-07T08:06:22;100489.88;;;4.01;100.00
4085;BME280;2057;50.858;6.572;2022-12-07T08:08:47;100489.22;;;4.04;100.00
4085;BME280;2057;50.858;6.572;2022-12-07T08:11:13;100488.81;;;4.10;100.00
4085;BME280;2057;50.858;6.572;2022-12-07T08:13:38;100485.53;;;4.11;100.00
4085;BME280;2057;50.858;6.572;2022-12-07T08:16:08;100485.75;;;4.14;100.00
4085;BME280;2057;50.858;6.572;2022-12-07T08:18:36;100485.00;;;4.15;100.00
4085;BME280;2057;50.858;6.572;2022-12-07T08:21:02;100483.78;;;4.10;100.00
4085;BME280;2057;50.858;6.572;2022-12-07T08:23:28;100480.94;;;4.05;100.00
4085;BME280;2057;50.858;6.572;2022-12-07T08:25:54;100481.22;;;4.20;100.00
4085;BME280;2057;50.858;6.572;2022-12-07T08:28:19;100485.31;;;4.07;100.00
4085;BME280;2057;50.858;6.572;2022-12-07T08:30:47;100490.84;;;4.03;100.00
4085;BME280;2057;50.858;6.572;2022-12-07T08:33:12;100485.97;;;4.05;100.00
4085;BME280;2057;50.858;6.572;2022-12-07T08:35:38;100477.84;;;3.97;100.00
4085;BME280;2057;50.858;6.572;2022-12-07T08:38:03;100488.56;;;4.06;100.00
4085;BME280;2057;50.858;6.572;2022-12-07T08:40:29;100495.41;;;3.97;100.00
4085;BME280;2057;50.858;6.572;2022-12-07T08:42:55;100485.69;;;4.24;100.00
4085;BME280;2057;50.858;6.572;2022-12-07T08:45:21;100491.75;;;4.04;100.00
4085;BME280;2057;50.858;6.572;2022-12-07T08:47:50;100489.69;;;4.10;100.00
4085;BME280;2057;50.858;6.572;2022-12-07T08:50:17;100487.63;;;4.16;100.00
4085;BME280;2057;50.858;6.572;2022-12-07T08:52:43;100489.50;;;4.19;100.00
4085;BME280;2057;50.858;6.572;2022-12-07T08:55:12;100494.63;;;4.20;100.00
4085;BME280;2057;50.858;6.572;2022-12-07T08:57:39;100487.53;;;4.27;100.00
4085;BME280;2057;50.858;6.572;2022-12-07T09:00:07;100482.84;;;4.31;100.00
4085;BME280;2057;50.858;6.572;2022-12-07T09:02:32;100479.34;;;4.29;100.00
4085;BME280;2057;50.858;6.572;2022-12-07T09:05:01;100482.84;;;4.31;100.00
4085;BME280;2057;50.858;6.572;2022-12-07T09:07:26;100489.53;;;4.31;100.00
4085;BME280;2057;50.858;6.572;2022-12-07T09:09:52;100487.03;;;4.43;100.00
4085;BME280;2057;50.858;6.572;2022-12-07T09:12:17;100485.50;;;4.33;100.00
4085;BME280;2057;50.858;6.572;2022-12-07T09:14:43;100486.38;;;4.33;100.00
4085;BME280;2057;50.858;6.572;2022-12-07T09:17:10;100488.44;;;4.27;100.00
4085;BME280;2057;50.858;6.572;2022-12-07T09:19:36;100495.56;;;4.33;100.00
4085;BME280;2057;50.858;6.572;2022-12-07T09:22:02;100496.19;;;4.30;100.00
4085;BME280;2057;50.858;6.572;2022-12-07T09:24:29;100490.91;;;4.49;100.00
4085;BME280;2057;50.858;6.572;2022-12-07T09:26:55;100495.50;;;4.55;100.00
4085;BME280;2057;50.858;6.572;2022-12-07T09:29:20;100496.47;;;4.57;100.00
4085;BME280;2057;50.858;6.572;2022-12-07T09:31:46;100497.69;;;4.50;100.00
4085;BME280;2057;50.858;6.572;2022-12-07T09:34:11;100503.06;;;4.67;100.00
4085;BME280;2057;50.858;6.572;2022-12-07T09:36:36;100504.25;;;4.72;100.00
4085;BME280;2057;50.858;6.572;2022-12-07T09:39:04;100500.22;;;4.86;100.00
4085;BME280;2057;50.858;6.572;2022-12-07T09:41:31;100487.41;;;4.95;100.00
4085;BME280;2057;50.858;6.572;2022-12-07T09:44:06;100495.09;;;4.96;100.00
4085;BME280;2057;50.858;6.572;2022-12-07T09:46:38;100494.19;;;5.08;100.00
4085;BME280;2057;50.858;6.572;2022-12-07T09:49:04;100495.75;;;4.94;100.00
4085;BME280;2057;50.858;6.572;2022-12-07T09:51:31;100490.59;;;4.92;100.00
4085;BME280;2057;50.858;6.572;2022-12-07T09:53:57;100490.59;;;4.92;100.00
4085;BME280;2057;50.858;6.572;2022-12-07T09:56:23;100502.97;;;4.89;100.00
4085;BME280;2057;50.858;6.572;2022-12-07T09:58:54;100488.50;;;4.86;100.00
4085;BME280;2057;50.858;6.572;2022-12-07T10:01:23;100491.16;;;4.88;100.00
4085;BME280;2057;50.858;6.572;2022-12-07T10:04:00;100488.09;;;4.92;100.00
4085;BME280;2057;50.858;6.572;2022-12-07T10:06:26;100481.94;;;5.00;100.00
4085;BME280;2057;50.858;6.572;2022-12-07T10:08:52;100481.19;;;5.13;100.00
4085;BME280;2057;50.858;6.572;2022-12-07T10:11:17;100475.19;;;5.11;100.00
4085;BME280;2057;50.858;6.572;2022-12-07T10:13:45;100477.03;;;5.14;100.00
4085;BME280;2057;50.858;6.572;2022-12-07T10:16:28;100479.56;;;5.02;100.00
4085;BME280;2057;50.858;6.572;2022-12-07T10:18:55;100466.53;;;5.08;100.00
4085;BME280;2057;50.858;6.572;2022-12-07T10:21:25;100472.13;;;5.03;100.00
4085;BME280;2057;50.858;6.572;2022-12-07T10:24:01;100476.72;;;4.97;100.00
4085;BME280;2057;50.858;6.572;2022-12-07T10:26:50;100471.88;;;5.00;100.00
4085;BME280;2057;50.858;6.572;2022-12-07T10:29:31;100468.91;;;5.18;100.00
4085;BME280;2057;50.858;6.572;2022-12-07T10:34:34;100466.41;;;5.18;100.00
4085;BME280;2057;50.858;6.572;2022-12-07T10:37:26;100458.09;;;5.19;100.00
4085;BME280;2057;50.858;6.572;2022-12-07T10:39:57;100455.69;;;5.09;100.00
4085;BME280;2057;50.858;6.572;2022-12-07T10:42:26;100446.38;;;5.08;100.00
4085;BME280;2057;50.858;6.572;2022-12-07T10:45:09;100460.88;;;4.98;100.00
4085;BME280;2057;50.858;6.572;2022-12-07T10:47:51;100454.84;;;4.84;100.00
4085;BME280;2057;50.858;6.572;2022-12-07T10:53:30;100446.22;;;4.81;100.00
4085;BME280;2057;50.858;6.572;2022-12-07T10:56:22;100451.44;;;4.96;100.00
4085;BME280;2057;50.858;6.572;2022-12-07T11:01:51;100446.97;;;5.03;100.00
4085;BME280;2057;50.858;6.572;2022-12-07T11:12:52;100423.09;;;5.10;100.00
4085;BME280;2057;50.858;6.572;2022-12-07T11:15:27;100416.66;;;5.14;100.00
4085;BME280;2057;50.858;6.572;2022-12-07T11:18:11;100414.31;;;5.29;100.00
4085;BME280;2057;50.858;6.572;2022-12-07T11:21:07;100406.44;;;5.12;100.00
4085;BME280;2057;50.858;6.572;2022-12-07T11:26:49;100408.25;;;5.39;100.00
4085;BME280;2057;50.858;6.572;2022-12-07T11:29:35;100411.00;;;5.42;100.00
4085;BME280;2057;50.858;6.572;2022-12-07T11:32:22;100404.22;;;5.41;100.00
4085;BME280;2057;50.858;6.572;2022-12-07T11:37:46;100402.91;;;5.59;100.00
4085;BME280;2057;50.858;6.572;2022-12-07T11:42:52;100400.16;;;5.68;100.00
4085;BME280;2057;50.858;6.572;2022-12-07T11:45:27;100400.31;;;5.58;100.00
4085;BME280;2057;50.858;6.572;2022-12-07T11:48:03;100398.69;;;5.46;100.00
4085;BME280;2057;50.858;6.572;2022-12-07T11:50:48;100391.03;;;5.20;100.00
4085;BME280;2057;50.858;6.572;2022-12-07T11:53:25;100382.78;;;5.34;100.00
4085;BME280;2057;50.858;6.572;2022-12-07T11:55:57;100380.22;;;5.46;100.00
4085;BME280;2057;50.858;6.572;2022-12-07T12:03:56;100371.00;;;5.46;100.00
4085;BME280;2057;50.858;6.572;2022-12-07T12:06:25;100382.56;;;5.31;100.00
4085;BME280;2057;50.858;6.572;2022-12-07T12:20:29;100377.97;;;5.25;100.00
4085;BME280;2057;50.858;6.572;2022-12-07T12:25:41;100374.72;;;5.14;100.00
4085;BME280;2057;50.858;6.572;2022-12-07T12:28:20;100369.47;;;5.23;100.00
4085;BME280;2057;50.858;6.572;2022-12-07T12:31:04;100366.28;;;5.26;100.00
4085;BME280;2057;50.858;6.572;2022-12-07T12:33:31;100372.63;;;5.32;100.00
4085;BME280;2057;50.858;6.572;2022-12-07T12:47:02;100358.88;;;5.66;100.00
4085;BME280;2057;50.858;6.572;2022-12-07T12:49:37;100351.63;;;5.71;100.00
4085;BME280;2057;50.858;6.572;2022-12-07T12:55:02;100342.22;;;5.93;100.00
4085;BME280;2057;50.858;6.572;2022-12-07T12:57:37;100340.72;;;5.84;100.00
4085;BME280;2057;50.858;6.572;2022-12-07T13:02:53;100334.81;;;5.83;100.00
4085;BME280;2057;50.858;6.572;2022-12-07T13:05:27;100339.09;;;5.84;100.00
4085;BME280;2057;50.858;6.572;2022-12-07T13:10:45;100343.41;;;5.73;100.00
4085;BME280;2057;50.858;6.572;2022-12-07T13:18:38;100335.34;;;5.65;100.00
4085;BME280;2057;50.858;6.572;2022-12-07T13:26:21;100325.97;;;5.63;100.00
4085;BME280;2057;50.858;6.572;2022-12-07T13:29:17;100329.72;;;5.56;100.00
4085;BME280;2057;50.858;6.572;2022-12-07T13:31:47;100320.50;;;5.57;100.00
4085;BME280;2057;50.858;6.572;2022-12-07T13:37:00;100315.66;;;5.60;100.00
4085;BME280;2057;50.858;6.572;2022-12-07T13:39:27;100313.06;;;5.58;100.00
4085;BME280;2057;50.858;6.572;2022-12-07T13:41:57;100313.06;;;5.58;100.00
4085;BME280;2057;50.858;6.572;2022-12-07T13:44:25;100305.38;;;5.57;100.00
4085;BME280;2057;50.858;6.572;2022-12-07T13:47:09;100307.03;;;5.56;100.00
4085;BME280;2057;50.858;6.572;2022-12-07T13:49:47;100300.03;;;5.52;100.00
4085;BME280;2057;50.858;6.572;2022-12-07T13:52:21;100295.31;;;5.57;100.00
4085;BME280;2057;50.858;6.572;2022-12-07T13:55:14;100291.03;;;5.56;100.00
4085;BME280;2057;50.858;6.572;2022-12-07T13:57:40;100290.72;;;5.63;100.00
4085;BME280;2057;50.858;6.572;2022-12-07T14:00:15;100288.97;;;5.62;100.00
4085;BME280;2057;50.858;6.572;2022-12-07T14:05:41;100296.16;;;5.44;100.00
4085;BME280;2057;50.858;6.572;2022-12-07T14:10:38;100285.47;;;5.60;100.00
4085;BME280;2057;50.858;6.572;2022-12-07T14:15:55;100281.50;;;5.63;100.00
4085;BME280;2057;50.858;6.572;2022-12-07T14:18:40;100273.69;;;5.47;100.00
4085;BME280;2057;50.858;6.572;2022-12-07T14:23:35;100278.75;;;5.47;100.00
4085;BME280;2057;50.858;6.572;2022-12-07T14:26:18;100270.78;;;5.41;100.00
4085;BME280;2057;50.858;6.572;2022-12-07T14:28:44;100266.25;;;5.48;100.00
4085;BME280;2057;50.858;6.572;2022-12-07T14:31:15;100259.06;;;5.41;100.00
4085;BME280;2057;50.858;6.572;2022-12-07T14:33:41;100256.78;;;5.58;100.00
4085;BME280;2057;50.858;6.572;2022-12-07T14:36:09;100253.34;;;5.44;100.00
4085;BME280;2057;50.858;6.572;2022-12-07T14:38:35;100261.50;;;5.40;100.00
4085;BME280;2057;50.858;6.572;2022-12-07T14:41:01;100257.72;;;5.46;100.00
4085;BME280;2057;50.858;6.572;2022-12-07T14:43:45;100251.28;;;5.38;100.00
4085;BME280;2057;50.858;6.572;2022-12-07T14:46:11;100253.94;;;5.40;100.00
4085;BME280;2057;50.858;6.572;2022-12-07T14:48:36;100250.06;;;5.45;100.00
4085;BME280;2057;50.858;6.572;2022-12-07T14:51:02;100255.06;;;5.31;100.00
4085;BME280;2057;50.858;6.572;2022-12-07T14:53:34;100255.06;;;5.31;100.00
4085;BME280;2057;50.858;6.572;2022-12-07T14:56:00;100251.00;;;5.33;100.00
4085;BME280;2057;50.858;6.572;2022-12-07T14:58:26;100246.38;;;5.40;100.00
4085;BME280;2057;50.858;6.572;2022-12-07T15:00:51;100236.19;;;5.38;100.00
4085;BME280;2057;50.858;6.572;2022-12-07T15:03:16;100245.41;;;5.38;100.00
4085;BME280;2057;50.858;6.572;2022-12-07T15:05:42;100238.84;;;5.40;100.00
4085;BME280;2057;50.858;6.572;2022-12-07T15:08:12;100240.47;;;5.39;100.00
4085;BME280;2057;50.858;6.572;2022-12-07T15:10:40;100236.25;;;5.52;100.00
4085;BME280;2057;50.858;6.572;2022-12-07T15:13:06;100236.09;;;5.37;100.00
4085;BME280;2057;50.858;6.572;2022-12-07T15:15:51;100235.41;;;5.26;100.00
4085;BME280;2057;50.858;6.572;2022-12-07T15:18:17;100240.75;;;5.30;100.00